Flight Briefing for CPX405

Departure Arrival
Nashville International Airport (KBNA)
Click to view FAA NOTAMS
Miami International Airport (KMIA)
Click to view FAA NOTAMS
Departure Time Arrival Time
N/A N/A
Aircraft Distance
B757-200SF 702nm
Departure METAR Arrival METAR
KBNA 252253Z 34010KT 10SM OVC025 14/08 A3004 RMK AO2 SLP169 T01390083 KMIA 252253Z 12010KT 10SM FEW025 FEW042 FEW250 25/19 A3002 RMK AO2 SLP164 T02500194
Suggested Route
TIPPN3 BRXTN BULZI NICKI Q81 ENDEW JUULI SSCOT5


View recent IFR Routes data
Notes



Charts and Procedures

Charts for KBNA
No chart available
Charts for KMIA
No chart available

Windy.com Weather Map